Terminal Aerodrome Forecast
Issued by NWS Shreveport, LA

Current Version | Previous Version | Text Only | Print | Product List | Glossary On
Versions: 1 2 3 4 5 6 7 8 9 10 11 12 13 14 15 16 17
000
FTUS44 KSHV 281757
TAFMLU
TAF
KMLU 281757Z 2818/2918 VRB05KT P6SM SCT110 BKN250
     FM290100 09008KT P6SM SCT250
     FM290900 10006KT P6SM BKN100
     FM291200 14006KT P6SM OVC050=

USA.gov is the U.S. government's official web portal to all federal, state and local government web resources and services.